createdAt,value
2022-11-25T00:01:27.276Z,29.87
2022-11-25T00:03:32.645Z,25.10
2022-11-25T00:05:34.827Z,20.77
2022-11-25T00:07:37.591Z,25.97
2022-11-25T00:09:39.789Z,24.00
2022-11-25T00:11:43.322Z,22.10
2022-11-25T00:13:46.913Z,23.67
2022-11-25T00:15:48.997Z,23.70
2022-11-25T00:17:51.698Z,22.07
2022-11-25T00:19:53.906Z,23.63
2022-11-25T00:21:56.058Z,23.43
2022-11-25T00:24:03.650Z,21.83
2022-11-25T00:26:11.283Z,24.43
2022-11-25T00:28:13.690Z,23.53
2022-11-25T00:30:15.733Z,23.80
2022-11-25T00:32:17.652Z,26.53
2022-11-25T00:34:19.810Z,22.70
2022-11-25T00:36:27.408Z,25.57
2022-11-25T00:38:30.039Z,24.57
2022-11-25T00:40:32.141Z,27.67
2022-11-25T00:42:53.001Z,26.27
2022-11-25T00:44:57.853Z,28.17
2022-11-25T00:46:59.896Z,27.30
2022-11-25T00:49:02.282Z,25.60
2022-11-25T00:51:04.604Z,22.33
2022-11-25T00:53:07.010Z,23.40
2022-11-25T00:55:09.290Z,22.13
2022-11-25T00:57:13.005Z,23.53
2022-11-25T00:59:15.032Z,21.40
2022-11-25T01:01:16.972Z,23.23
2022-11-25T01:03:18.912Z,31.00
2022-11-25T01:05:21.439Z,33.00
2022-11-25T01:07:23.771Z,29.90
2022-11-25T01:09:31.116Z,25.00
2022-11-25T01:11:33.698Z,24.40
2022-11-25T01:13:35.704Z,24.30
2022-11-25T01:15:38.254Z,23.40
2022-11-25T01:17:40.172Z,22.13
2022-11-25T01:19:42.078Z,21.83
2022-11-25T01:21:44.465Z,21.33
2022-11-25T01:23:48.721Z,20.00
2022-11-25T01:25:50.814Z,18.37
2022-11-25T01:27:53.540Z,18.23
2022-11-25T01:29:55.659Z,16.70
2022-11-25T01:31:57.912Z,16.83
2022-11-25T01:34:06.250Z,17.53
2022-11-25T01:36:10.931Z,20.27
2022-11-25T01:38:13.493Z,21.00
2022-11-25T01:40:15.926Z,19.97
2022-11-25T01:42:18.225Z,18.13
2022-11-25T01:44:28.009Z,19.13
2022-11-25T01:46:53.209Z,17.20
2022-11-25T01:49:00.600Z,16.83
2022-11-25T01:51:06.674Z,17.50
2022-11-25T01:53:12.301Z,16.10
2022-11-25T01:55:20.580Z,13.83
2022-11-25T01:57:28.400Z,14.50
2022-11-25T01:59:36.458Z,13.80
2022-11-25T02:01:41.356Z,13.57
2022-11-25T02:03:48.145Z,12.43
2022-11-25T02:06:06.731Z,12.90
2022-11-25T02:08:09.956Z,13.93
2022-11-25T02:10:18.271Z,12.53
2022-11-25T02:12:21.095Z,12.47
2022-11-25T02:14:25.570Z,11.80
2022-11-25T02:16:27.675Z,14.00
2022-11-25T02:18:30.418Z,15.37
2022-11-25T02:20:34.547Z,17.27
2022-11-25T02:22:51.247Z,16.90
2022-11-25T02:25:02.454Z,17.53
2022-11-25T02:27:04.554Z,15.93
2022-11-25T02:29:06.602Z,16.13
2022-11-25T02:31:08.931Z,14.80
2022-11-25T02:33:12.210Z,16.70
2022-11-25T02:35:31.130Z,20.43
2022-11-25T02:37:33.577Z,30.23
2022-11-25T02:39:35.874Z,26.80
2022-11-25T02:41:42.805Z,25.97
2022-11-25T02:43:45.512Z,54.67
2022-11-25T02:45:58.522Z,77.83
2022-11-25T02:48:01.112Z,60.87
2022-11-25T02:50:04.035Z,35.17
2022-11-25T02:52:06.283Z,24.87
2022-11-25T02:54:08.238Z,18.23
2022-11-25T02:56:11.856Z,15.97
2022-11-25T02:58:15.203Z,12.27
2022-11-25T03:00:17.995Z,14.13
2022-11-25T03:02:20.148Z,13.63
2022-11-25T03:04:22.377Z,12.73
2022-11-25T03:06:24.730Z,11.07
2022-11-25T03:08:30.606Z,11.53
2022-11-25T03:10:33.774Z,13.23
2022-11-25T03:12:35.984Z,11.63
2022-11-25T03:14:38.347Z,11.13
2022-11-25T03:16:40.595Z,10.97
2022-11-25T03:18:42.760Z,10.13
2022-11-25T03:20:45.283Z,10.20
2022-11-25T03:22:50.133Z,12.13
2022-11-25T03:24:53.626Z,9.63
2022-11-25T03:26:56.893Z,9.80
2022-11-25T03:28:59.145Z,13.37
2022-11-25T03:31:02.329Z,12.00
2022-11-25T03:33:08.001Z,15.37
2022-11-25T03:35:11.228Z,13.00
2022-11-25T03:37:16.350Z,12.83
2022-11-25T03:39:18.575Z,12.70
2022-11-25T03:41:20.797Z,14.37
2022-11-25T03:43:22.931Z,13.57
2022-11-25T03:45:25.357Z,13.70
2022-11-25T03:47:31.341Z,11.23
2022-11-25T03:49:33.557Z,11.37
2022-11-25T03:51:36.086Z,11.67
2022-11-25T03:53:38.493Z,12.10
2022-11-25T03:55:43.309Z,12.50
2022-11-25T03:57:45.536Z,12.87
2022-11-25T03:59:48.033Z,12.77
2022-11-25T04:01:50.235Z,13.37
2022-11-25T04:03:52.368Z,14.90
2022-11-25T04:05:54.766Z,16.87
2022-11-25T04:07:58.333Z,19.30
2022-11-25T04:10:01.398Z,19.77
2022-11-25T04:12:25.454Z,21.00
2022-11-25T04:14:32.516Z,20.50
2022-11-25T04:16:38.068Z,26.40
2022-11-25T04:18:40.282Z,28.40
2022-11-25T04:20:43.695Z,33.30
2022-11-25T04:22:47.226Z,31.90
2022-11-25T04:24:49.828Z,37.77
2022-11-25T04:26:59.270Z,30.10
2022-11-25T04:29:01.526Z,29.60
2022-11-25T04:31:07.812Z,31.30
2022-11-25T04:33:12.501Z,37.77
2022-11-25T04:35:15.446Z,33.00
2022-11-25T04:37:21.870Z,38.33
2022-11-25T04:39:24.108Z,46.93
2022-11-25T04:41:30.139Z,49.50
2022-11-25T04:43:33.142Z,41.83
2022-11-25T04:48:04.643Z,35.93
2022-11-25T04:50:10.637Z,34.77
2022-11-25T04:52:21.432Z,36.83
2022-11-25T04:54:23.692Z,31.10
2022-11-25T04:56:26.297Z,31.23
2022-11-25T04:58:49.592Z,33.33
2022-11-25T05:00:51.498Z,27.50
2022-11-25T05:02:54.868Z,28.67
2022-11-25T05:04:58.540Z,30.57
2022-11-25T05:07:01.035Z,30.83
2022-11-25T05:09:05.026Z,26.70
2022-11-25T05:11:10.077Z,30.23
2022-11-25T05:13:13.400Z,28.10
2022-11-25T05:15:15.848Z,36.57
2022-11-25T05:17:23.611Z,35.23
2022-11-25T05:19:25.819Z,91.93
2022-11-25T05:21:27.994Z,49.23
2022-11-25T05:23:30.965Z,58.40
2022-11-25T05:25:33.932Z,43.77
2022-11-25T05:27:55.448Z,36.50
2022-11-25T05:29:57.626Z,42.60
2022-11-25T05:32:00.490Z,38.90
2022-11-25T05:34:03.901Z,35.63
2022-11-25T05:36:06.488Z,36.70
2022-11-25T05:38:17.553Z,34.17
2022-11-25T05:40:19.722Z,40.50
2022-11-25T05:42:42.086Z,36.77
2022-11-25T05:44:44.005Z,40.87
2022-11-25T05:46:52.224Z,36.97
2022-11-25T05:48:56.099Z,41.60
2022-11-25T05:51:03.153Z,35.23
2022-11-25T05:53:06.401Z,33.17
2022-11-25T05:55:10.581Z,40.43
2022-11-25T05:57:12.651Z,36.43
2022-11-25T05:59:19.391Z,37.33
2022-11-25T06:01:34.434Z,36.93
2022-11-25T06:03:37.461Z,38.90
2022-11-25T06:05:41.340Z,34.83
2022-11-25T06:07:43.936Z,39.50
2022-11-25T06:09:46.609Z,39.93
2022-11-25T06:11:48.875Z,37.10
2022-11-25T06:13:51.427Z,33.80
2022-11-25T06:15:53.718Z,31.20
2022-11-25T06:17:56.189Z,27.33
2022-11-25T06:20:00.616Z,25.50
2022-11-25T06:22:02.564Z,23.27
2022-11-25T06:24:05.213Z,22.17
2022-11-25T06:26:10.870Z,19.90
2022-11-25T06:28:13.599Z,19.07
2022-11-25T06:30:24.902Z,19.63
2022-11-25T06:32:41.473Z,16.23
2022-11-25T06:35:04.347Z,15.47
2022-11-25T06:37:28.685Z,17.03
2022-11-25T06:39:30.817Z,27.27
2022-11-25T06:41:32.812Z,18.67
2022-11-25T06:43:35.168Z,17.40
2022-11-25T06:45:37.293Z,19.87
2022-11-25T06:47:39.411Z,17.53
2022-11-25T06:49:41.377Z,17.07
2022-11-25T06:51:43.679Z,19.77
2022-11-25T06:53:46.082Z,17.23
2022-11-25T06:55:48.170Z,15.80
2022-11-25T06:57:51.358Z,17.57
2022-11-25T06:59:58.483Z,16.47
2022-11-25T07:02:00.875Z,16.00
2022-11-25T07:04:05.897Z,15.33
2022-11-25T07:06:08.214Z,16.50
2022-11-25T07:08:10.224Z,17.13
2022-11-25T07:10:12.381Z,22.47
2022-11-25T07:12:14.769Z,33.37
2022-11-25T07:14:17.404Z,23.53
2022-11-25T07:16:19.863Z,21.87
2022-11-25T07:18:22.818Z,21.20
2022-11-25T07:20:28.038Z,18.13
2022-11-25T07:22:30.467Z,18.33
2022-11-25T07:24:33.973Z,18.17
2022-11-25T07:26:38.810Z,16.70
2022-11-25T07:28:41.137Z,17.67
2022-11-25T07:33:08.204Z,14.23
2022-11-25T07:35:10.542Z,17.03
2022-11-25T07:37:37.340Z,14.90
2022-11-25T07:39:41.959Z,14.67
2022-11-25T07:41:44.592Z,15.10
2022-11-25T07:43:48.699Z,15.83
2022-11-25T07:45:54.459Z,15.63
2022-11-25T07:47:56.558Z,14.40
2022-11-25T07:49:58.444Z,13.23
2022-11-25T07:52:00.772Z,17.10
2022-11-25T07:54:05.036Z,22.83
2022-11-25T07:56:07.220Z,13.23
2022-11-25T07:58:09.321Z,13.33
2022-11-25T08:00:11.881Z,13.67
2022-11-25T08:02:13.845Z,13.17
2022-11-25T08:04:20.078Z,15.30
2022-11-25T08:06:25.151Z,16.73
2022-11-25T08:08:28.301Z,15.67
2022-11-25T08:10:30.311Z,14.73
2022-11-25T08:12:33.064Z,17.00
2022-11-25T08:14:35.509Z,15.57
2022-11-25T08:16:38.341Z,16.33
2022-11-25T08:18:40.950Z,15.43
2022-11-25T08:20:42.948Z,14.33
2022-11-25T08:22:44.967Z,14.50
2022-11-25T08:24:46.932Z,14.67
2022-11-25T08:26:49.608Z,15.23
2022-11-25T08:28:52.830Z,15.77
2022-11-25T08:31:02.698Z,18.80
2022-11-25T08:33:07.398Z,17.63
2022-11-25T08:35:09.571Z,13.70
2022-11-25T08:37:11.588Z,15.80
2022-11-25T08:39:36.403Z,12.77
2022-11-25T08:41:37.219Z,11.20
2022-11-25T08:43:40.088Z,13.10
2022-11-25T08:45:42.163Z,13.33
2022-11-25T08:47:44.321Z,13.00
2022-11-25T08:49:46.853Z,13.33
2022-11-25T08:51:49.215Z,15.47
2022-11-25T08:53:56.709Z,13.97
2022-11-25T08:55:58.852Z,12.33
2022-11-25T08:58:00.739Z,12.07
2022-11-25T09:00:04.224Z,12.83
2022-11-25T09:02:08.358Z,13.17
2022-11-25T09:04:10.290Z,11.17
2022-11-25T09:06:12.968Z,12.67
2022-11-25T09:08:18.035Z,12.33
2022-11-25T09:10:20.020Z,15.03
2022-11-25T09:12:22.165Z,33.93
2022-11-25T09:14:24.191Z,37.70
2022-11-25T09:16:27.036Z,34.20
2022-11-25T09:18:30.460Z,24.97
2022-11-25T09:20:33.370Z,21.90
2022-11-25T09:22:35.129Z,17.90
2022-11-25T09:24:37.531Z,14.47
2022-11-25T09:26:39.904Z,15.17
2022-11-25T09:28:42.076Z,16.07
2022-11-25T09:30:44.187Z,16.00
2022-11-25T09:32:49.383Z,12.83
2022-11-25T09:34:51.332Z,15.33
2022-11-25T09:36:53.609Z,11.37
2022-11-25T09:38:55.987Z,10.57
2022-11-25T09:41:40.159Z,11.47
2022-11-25T09:44:18.107Z,13.93
2022-11-25T09:46:44.206Z,14.07
2022-11-25T09:48:51.798Z,12.43
2022-11-25T09:51:13.997Z,15.50
2022-11-25T09:53:21.973Z,10.30
2022-11-25T09:55:26.143Z,11.43
2022-11-25T09:57:52.819Z,9.53
2022-11-25T10:00:11.441Z,13.63
2022-11-25T10:02:50.924Z,9.40
2022-11-25T10:05:03.155Z,10.17
2022-11-25T10:07:13.940Z,9.53
2022-11-25T10:09:20.883Z,9.83
2022-11-25T10:11:35.159Z,8.47
2022-11-25T10:14:01.504Z,9.77
2022-11-25T10:16:08.474Z,10.53
2022-11-25T10:18:41.665Z,9.03
2022-11-25T10:20:44.152Z,6.97
2022-11-25T10:22:49.361Z,7.53
2022-11-25T10:24:54.186Z,8.17
2022-11-25T10:27:06.144Z,5.10
2022-11-25T10:29:14.221Z,6.80
2022-11-25T10:31:36.264Z,6.67
2022-11-25T10:33:45.095Z,5.40
2022-11-25T10:36:15.852Z,6.47
2022-11-25T10:38:36.592Z,7.70
2022-11-25T10:40:38.531Z,6.97
2022-11-25T10:42:40.482Z,5.93
2022-11-25T10:44:42.880Z,6.53
2022-11-25T10:47:13.579Z,7.47
2022-11-25T10:50:01.105Z,10.20
2022-11-25T10:52:11.645Z,12.13
2022-11-25T10:54:27.675Z,16.70
2022-11-25T10:56:30.347Z,12.63
2022-11-25T10:58:37.809Z,10.50
2022-11-25T11:00:39.740Z,10.23
2022-11-25T11:02:48.462Z,7.67
2022-11-25T11:04:57.679Z,6.70
2022-11-25T11:07:08.477Z,6.00
2022-11-25T11:09:38.869Z,6.75
2022-11-25T11:11:49.141Z,5.70
2022-11-25T11:13:59.862Z,6.03
2022-11-25T11:16:02.190Z,6.90
2022-11-25T11:18:30.509Z,6.17
2022-11-25T11:20:32.833Z,6.70
2022-11-25T11:22:46.506Z,9.10
2022-11-25T11:24:48.489Z,7.17
2022-11-25T11:27:03.684Z,8.53
2022-11-25T11:29:16.872Z,12.63
2022-11-25T11:31:29.224Z,9.50
2022-11-25T11:34:05.869Z,8.20
2022-11-25T11:36:15.466Z,8.60
2022-11-25T11:38:17.630Z,8.05
2022-11-25T11:40:35.573Z,10.27
2022-11-25T11:43:04.755Z,12.07
2022-11-25T11:45:26.332Z,11.50
2022-11-25T11:47:28.361Z,9.77
2022-11-25T11:49:34.823Z,22.30
2022-11-25T11:52:10.661Z,25.00
2022-11-25T11:54:34.760Z,33.17
2022-11-25T11:56:43.071Z,22.40
2022-11-25T11:59:06.068Z,14.13
2022-11-25T12:01:11.085Z,12.30
2022-11-25T12:03:22.166Z,10.33
2022-11-25T12:05:29.756Z,11.20
2022-11-25T12:07:46.920Z,11.70
2022-11-25T12:09:59.621Z,9.77
2022-11-25T12:12:07.099Z,12.07
2022-11-25T12:14:23.715Z,11.68
2022-11-25T12:16:48.846Z,20.52
2022-11-25T12:19:02.300Z,15.03
2022-11-25T12:21:08.759Z,16.37
2022-11-25T12:23:23.723Z,14.57
2022-11-25T12:25:38.153Z,20.40
2022-11-25T12:27:50.925Z,23.07
2022-11-25T12:30:06.223Z,17.90
2022-11-25T12:32:22.096Z,13.00
2022-11-25T12:34:36.943Z,7.50
2022-11-25T12:36:45.126Z,10.30
2022-11-25T12:39:12.367Z,15.60
2022-11-25T12:41:27.403Z,17.40
2022-11-25T12:43:34.565Z,18.00
2022-11-25T12:45:36.782Z,17.33
2022-11-25T12:47:39.484Z,29.83
2022-11-25T12:49:47.371Z,24.27
2022-11-25T12:52:19.622Z,27.87
2022-11-25T12:55:05.920Z,25.87
2022-11-25T12:57:08.359Z,23.25
2022-11-25T12:59:38.570Z,24.27
2022-11-25T13:01:49.793Z,26.20
2022-11-25T13:04:29.299Z,25.30
2022-11-25T13:06:38.920Z,24.10
2022-11-25T13:08:52.719Z,23.33
2022-11-25T13:11:23.129Z,20.87
2022-11-25T13:13:36.970Z,17.00
2022-11-25T13:15:44.683Z,12.97
2022-11-25T13:17:49.114Z,18.73
2022-11-25T13:20:29.153Z,23.80
2022-11-25T13:22:31.264Z,28.60
2022-11-25T13:24:39.507Z,23.40
2022-11-25T13:26:47.791Z,19.00
2022-11-25T13:28:51.774Z,20.17
2022-11-25T13:30:54.249Z,17.23
2022-11-25T13:32:56.486Z,16.03
2022-11-25T13:35:21.451Z,15.23
2022-11-25T13:37:40.782Z,13.30
2022-11-25T13:39:42.873Z,15.27
2022-11-25T13:41:50.313Z,19.90
2022-11-25T13:44:16.674Z,24.23
2022-11-25T13:46:37.824Z,24.30
2022-11-25T13:48:44.907Z,32.97
2022-11-25T13:51:09.893Z,32.07
2022-11-25T13:53:21.996Z,24.30
2022-11-25T13:55:33.153Z,25.07
2022-11-25T13:57:38.729Z,19.97
2022-11-25T13:59:43.591Z,17.20
2022-11-25T14:01:45.707Z,14.10
2022-11-25T14:03:52.143Z,17.50
2022-11-25T14:06:01.623Z,17.57
2022-11-25T14:08:28.087Z,17.80
2022-11-25T14:10:46.203Z,19.23
2022-11-25T14:12:50.246Z,27.00
2022-11-25T14:14:57.731Z,18.87
2022-11-25T14:17:31.033Z,17.00
2022-11-25T14:19:52.653Z,17.50
2022-11-25T14:22:06.981Z,20.73
2022-11-25T14:24:21.163Z,15.80
2022-11-25T14:26:48.662Z,18.53
2022-11-25T14:29:00.765Z,17.47
2022-11-25T14:31:11.386Z,15.23
2022-11-25T14:33:17.423Z,17.47
2022-11-25T14:35:30.702Z,16.83
2022-11-25T14:37:43.062Z,19.40
2022-11-25T14:40:10.918Z,15.83
2022-11-25T14:42:17.911Z,18.50
2022-11-25T14:44:27.223Z,17.97
2022-11-25T14:46:29.626Z,16.87
2022-11-25T14:48:31.678Z,16.97
2022-11-25T14:50:35.095Z,21.60
2022-11-25T14:52:37.609Z,18.50
2022-11-25T14:54:44.757Z,18.10
2022-11-25T14:56:47.521Z,20.67
2022-11-25T14:58:53.226Z,17.10
2022-11-25T15:00:58.144Z,18.23
2022-11-25T15:03:02.799Z,18.70
2022-11-25T15:05:10.876Z,16.90
2022-11-25T15:07:20.027Z,20.47
2022-11-25T15:09:31.056Z,19.37
2022-11-25T15:11:35.280Z,18.33
2022-11-25T15:13:48.020Z,23.33
2022-11-25T15:15:51.523Z,19.87
2022-11-25T15:17:55.463Z,25.27
2022-11-25T15:20:01.597Z,23.73
2022-11-25T15:22:24.043Z,20.90
2022-11-25T15:24:31.902Z,21.27
2022-11-25T15:26:35.675Z,22.50
2022-11-25T15:28:40.334Z,21.17
2022-11-25T15:30:42.473Z,23.73
2022-11-25T15:32:44.929Z,26.93
2022-11-25T15:34:48.823Z,20.27
2022-11-25T15:36:54.886Z,19.07
2022-11-25T15:39:19.880Z,19.83
2022-11-25T15:41:34.297Z,23.40
2022-11-25T15:43:41.456Z,25.60
2022-11-25T15:45:46.347Z,23.77
2022-11-25T15:47:49.150Z,25.90
2022-11-25T15:50:06.032Z,26.13
2022-11-25T15:52:17.635Z,29.77
2022-11-25T15:54:24.928Z,29.30
2022-11-25T15:56:28.034Z,28.50
2022-11-25T15:58:30.597Z,27.50
2022-11-25T16:00:32.628Z,30.23
2022-11-25T16:02:43.822Z,32.67
2022-11-25T16:04:46.179Z,31.20
2022-11-25T16:07:00.163Z,31.00
2022-11-25T16:09:04.328Z,33.60
2022-11-25T16:11:15.679Z,33.83
2022-11-25T16:13:23.861Z,35.87
2022-11-25T16:16:02.099Z,33.87
2022-11-25T16:18:24.935Z,32.57
2022-11-25T16:20:26.704Z,32.43
2022-11-25T16:22:30.279Z,31.07
2022-11-25T16:24:49.112Z,32.47
2022-11-25T16:27:00.972Z,29.53
2022-11-25T16:29:15.737Z,23.30
2022-11-25T16:31:18.561Z,21.33
2022-11-25T16:33:20.872Z,22.07
2022-11-25T16:35:22.949Z,21.63
2022-11-25T16:37:28.041Z,27.00
2022-11-25T16:39:30.585Z,45.67
2022-11-25T16:41:32.602Z,58.57
2022-11-25T16:43:34.713Z,58.40
2022-11-25T16:45:37.076Z,49.77
2022-11-25T16:47:39.255Z,41.17
2022-11-25T16:49:44.033Z,44.47
2022-11-25T16:51:46.495Z,38.97
2022-11-25T16:53:48.805Z,33.53
2022-11-25T16:55:51.159Z,31.80
2022-11-25T16:57:56.214Z,30.53
2022-11-25T17:00:01.104Z,30.43
2022-11-25T17:02:05.860Z,31.53
2022-11-25T17:04:11.912Z,34.10
2022-11-25T17:06:22.156Z,27.83
2022-11-25T17:08:24.606Z,28.17
2022-11-25T17:10:31.561Z,35.00
2022-11-25T17:12:35.146Z,34.87
2022-11-25T17:14:38.529Z,34.50
2022-11-25T17:16:42.995Z,33.87
2022-11-25T17:18:45.176Z,37.77
2022-11-25T17:20:47.316Z,41.60
2022-11-25T17:22:49.703Z,36.73
2022-11-25T17:24:51.933Z,41.10
2022-11-25T17:27:05.349Z,39.07
2022-11-25T17:29:13.006Z,48.87
2022-11-25T17:31:15.147Z,46.30
2022-11-25T17:33:20.391Z,58.43
2022-11-25T17:35:22.461Z,59.20
2022-11-25T17:37:25.993Z,68.90
2022-11-25T17:39:28.021Z,53.47
2022-11-25T17:41:31.001Z,54.20
2022-11-25T17:43:39.749Z,54.33
2022-11-25T17:45:42.386Z,51.07
2022-11-25T17:47:45.061Z,52.20
2022-11-25T17:49:47.117Z,52.53
2022-11-25T17:51:49.614Z,48.53
2022-11-25T17:53:52.964Z,44.73
2022-11-25T17:55:55.285Z,41.60
2022-11-25T17:57:57.470Z,38.77
2022-11-25T17:59:59.719Z,34.83
2022-11-25T18:02:02.054Z,34.73
2022-11-25T18:04:24.951Z,41.00
2022-11-25T18:06:26.843Z,33.30
2022-11-25T18:08:29.670Z,36.80
2022-11-25T18:10:32.062Z,38.50
2022-11-25T18:12:36.825Z,40.33
2022-11-25T18:14:40.896Z,41.93
2022-11-25T18:16:43.035Z,45.13
2022-11-25T18:18:45.158Z,42.13
2022-11-25T18:20:47.267Z,43.53
2022-11-25T18:22:51.047Z,49.80
2022-11-25T18:24:54.074Z,56.00
2022-11-25T18:26:57.788Z,53.13
2022-11-25T18:29:02.112Z,55.37
2022-11-25T18:31:06.057Z,53.37
2022-11-25T18:33:16.137Z,44.43
2022-11-25T18:35:24.427Z,42.57
2022-11-25T18:37:26.694Z,40.60
2022-11-25T18:39:28.837Z,50.43
2022-11-25T18:41:31.028Z,66.90
2022-11-25T18:43:35.034Z,61.63
2022-11-25T18:45:38.816Z,53.30
2022-11-25T18:47:41.393Z,50.70
2022-11-25T18:49:43.706Z,46.77
2022-11-25T18:51:46.011Z,48.90
2022-11-25T18:53:47.980Z,49.43
2022-11-25T18:55:50.376Z,50.47
2022-11-25T18:57:52.896Z,62.53
2022-11-25T19:00:17.215Z,60.67
2022-11-25T19:02:18.788Z,60.23
2022-11-25T19:04:20.969Z,56.60
2022-11-25T19:06:23.522Z,60.60
2022-11-25T19:08:25.636Z,77.47
2022-11-25T19:10:31.439Z,72.70
2022-11-25T19:12:33.611Z,74.97
2022-11-25T19:14:39.568Z,68.73
2022-11-25T19:16:42.836Z,67.03
2022-11-25T19:18:46.917Z,73.57
2022-11-25T19:20:48.776Z,79.00
2022-11-25T19:22:50.631Z,79.00
2022-11-25T19:24:52.475Z,79.53
2022-11-25T19:26:56.729Z,78.30
2022-11-25T19:29:04.502Z,71.60
2022-11-25T19:31:06.805Z,63.03
2022-11-25T19:33:16.479Z,58.23
2022-11-25T19:35:25.256Z,73.90
2022-11-25T19:37:30.213Z,88.07
2022-11-25T19:39:36.411Z,67.43
2022-11-25T19:41:38.377Z,59.83
2022-11-25T19:43:40.105Z,42.80
2022-11-25T19:45:43.239Z,38.63
2022-11-25T19:47:51.348Z,37.03
2022-11-25T19:49:58.567Z,40.13
2022-11-25T19:52:02.072Z,35.03
2022-11-25T19:54:04.427Z,36.87
2022-11-25T19:56:07.372Z,32.93
2022-11-25T19:58:09.388Z,32.50
2022-11-25T20:00:13.471Z,49.53
2022-11-25T20:02:22.010Z,92.70
2022-11-25T20:04:24.226Z,139.37
2022-11-25T20:06:30.835Z,109.90
2022-11-25T20:08:32.961Z,104.23
2022-11-25T20:10:35.063Z,87.77
2022-11-25T20:12:37.108Z,67.63
2022-11-25T20:14:39.308Z,53.97
2022-11-25T20:16:44.706Z,59.37
2022-11-25T20:18:47.619Z,54.70
2022-11-25T20:21:52.799Z,46.87
2022-11-25T20:23:55.229Z,62.17
2022-11-25T20:25:57.266Z,52.00
2022-11-25T20:27:59.256Z,48.43
2022-11-25T20:30:01.837Z,36.47
2022-11-25T20:32:22.709Z,34.77
2022-11-25T20:34:24.890Z,37.90
2022-11-25T20:36:32.167Z,34.93
2022-11-25T20:38:36.334Z,31.97
2022-11-25T20:40:42.004Z,40.83
2022-11-25T20:42:44.008Z,45.73
2022-11-25T20:44:45.886Z,41.90
2022-11-25T20:46:48.294Z,38.33
2022-11-25T20:49:02.598Z,40.97
2022-11-25T20:51:13.026Z,32.17
2022-11-25T20:53:19.222Z,39.00
2022-11-25T20:55:25.052Z,37.83
2022-11-25T20:57:27.115Z,42.80
2022-11-25T20:59:29.262Z,37.73
2022-11-25T21:01:31.316Z,40.77
2022-11-25T21:03:33.391Z,43.53
2022-11-25T21:05:36.751Z,45.30
2022-11-25T21:07:39.391Z,49.13
2022-11-25T21:09:42.435Z,46.63
2022-11-25T21:11:44.500Z,43.63
2022-11-25T21:13:47.303Z,39.00
2022-11-25T21:15:49.567Z,35.90
2022-11-25T21:17:52.294Z,41.17
2022-11-25T21:19:54.287Z,47.37
2022-11-25T21:21:56.191Z,52.77
2022-11-25T21:24:02.465Z,53.33
2022-11-25T21:26:08.229Z,51.23
2022-11-25T21:28:22.241Z,46.23
2022-11-25T21:30:32.497Z,47.10
2022-11-25T21:32:34.644Z,42.90
2022-11-25T21:34:36.939Z,43.87
2022-11-25T21:36:40.573Z,46.17
2022-11-25T21:38:44.160Z,39.50
2022-11-25T21:40:50.212Z,38.10
2022-11-25T21:42:52.735Z,38.53
2022-11-25T21:44:55.569Z,42.37
2022-11-25T21:46:57.685Z,37.60
2022-11-25T21:48:59.850Z,33.77
2022-11-25T21:51:02.108Z,37.67
2022-11-25T21:53:07.116Z,38.27
2022-11-25T21:55:13.698Z,43.60
2022-11-25T21:57:21.995Z,50.43
2022-11-25T21:59:24.030Z,53.57
2022-11-25T22:01:26.199Z,58.60
2022-11-25T22:03:31.238Z,64.20
2022-11-25T22:05:33.458Z,54.17
2022-11-25T22:07:35.583Z,52.27
2022-11-25T22:09:37.838Z,61.00
2022-11-25T22:11:43.893Z,54.10
2022-11-25T22:13:49.146Z,46.13
2022-11-25T22:15:55.706Z,44.20
2022-11-25T22:17:58.463Z,41.63
2022-11-25T22:20:00.525Z,39.00
2022-11-25T22:22:03.013Z,47.53
2022-11-25T22:24:14.515Z,42.33
2022-11-25T22:26:23.708Z,42.70
2022-11-25T22:28:28.301Z,38.43
2022-11-25T22:30:30.543Z,36.30
2022-11-25T22:32:33.108Z,40.97
2022-11-25T22:34:35.345Z,50.23
2022-11-25T22:36:39.986Z,39.30
2022-11-25T22:38:42.354Z,34.63
2022-11-25T22:40:46.850Z,32.37
2022-11-25T22:42:51.567Z,32.70
2022-11-25T22:44:56.465Z,29.77
2022-11-25T22:46:59.087Z,27.50
2022-11-25T22:49:00.958Z,35.67
2022-11-25T22:51:04.222Z,28.50
2022-11-25T22:53:16.874Z,30.43
2022-11-25T22:55:21.593Z,30.47
2022-11-25T22:57:23.873Z,23.40
2022-11-25T22:59:26.012Z,23.53
2022-11-25T23:01:28.068Z,24.40
2022-11-25T23:03:30.390Z,26.13
2022-11-25T23:05:34.617Z,27.10
2022-11-25T23:07:36.687Z,24.53
2022-11-25T23:09:44.333Z,23.47
2022-11-25T23:11:49.769Z,21.13
2022-11-25T23:13:51.669Z,23.03
2022-11-25T23:15:59.612Z,22.87
2022-11-25T23:18:03.937Z,21.90
2022-11-25T23:20:15.798Z,20.67
2022-11-25T23:22:18.783Z,17.83
2022-11-25T23:24:20.866Z,21.27
2022-11-25T23:26:23.501Z,21.30
2022-11-25T23:28:25.783Z,22.77
2022-11-25T23:30:28.276Z,23.70
2022-11-25T23:32:30.422Z,22.10
2022-11-25T23:34:33.273Z,21.37
2022-11-25T23:36:47.440Z,25.83
2022-11-25T23:38:58.065Z,25.97
2022-11-25T23:41:00.193Z,19.37
2022-11-25T23:43:11.704Z,21.43
2022-11-25T23:45:19.705Z,20.67
2022-11-25T23:47:24.665Z,22.57
2022-11-25T23:49:44.266Z,20.67
2022-11-25T23:51:46.590Z,18.03
2022-11-25T23:53:49.205Z,19.87
2022-11-25T23:55:52.012Z,20.27
2022-11-25T23:57:54.579Z,21.20
2022-11-25T23:59:56.551Z,20.60
